sensor_id;sensor_type;location;lat;lon;timestamp;P1;durP1;ratioP1;P2;durP2;ratioP2
22378;SDS011;11357;49.990;7.370;2024-02-15T00:00:09;7.90;;;3.53;;
22378;SDS011;11357;49.990;7.370;2024-02-15T00:02:36;14.33;;;5.20;;
22378;SDS011;11357;49.990;7.370;2024-02-15T00:05:02;11.50;;;4.33;;
22378;SDS011;11357;49.990;7.370;2024-02-15T00:07:27;11.87;;;3.27;;
22378;SDS011;11357;49.990;7.370;2024-02-15T00:09:53;9.90;;;4.00;;
22378;SDS011;11357;49.990;7.370;2024-02-15T00:12:19;12.30;;;4.30;;
22378;SDS011;11357;49.990;7.370;2024-02-15T00:14:45;12.23;;;3.70;;
22378;SDS011;11357;49.990;7.370;2024-02-15T00:17:11;26.40;;;5.37;;
22378;SDS011;11357;49.990;7.370;2024-02-15T00:19:37;13.23;;;4.10;;
22378;SDS011;11357;49.990;7.370;2024-02-15T00:22:05;12.17;;;3.43;;
22378;SDS011;11357;49.990;7.370;2024-02-15T00:24:30;16.07;;;5.30;;
22378;SDS011;11357;49.990;7.370;2024-02-15T00:26:56;14.73;;;4.23;;
22378;SDS011;11357;49.990;7.370;2024-02-15T00:29:22;10.23;;;3.60;;
22378;SDS011;11357;49.990;7.370;2024-02-15T00:31:49;11.87;;;3.23;;
22378;SDS011;11357;49.990;7.370;2024-02-15T00:34:15;12.83;;;4.63;;
22378;SDS011;11357;49.990;7.370;2024-02-15T00:36:44;12.43;;;4.37;;
22378;SDS011;11357;49.990;7.370;2024-02-15T00:39:09;13.03;;;4.17;;
22378;SDS011;11357;49.990;7.370;2024-02-15T00:41:37;10.20;;;3.77;;
22378;SDS011;11357;49.990;7.370;2024-02-15T00:44:06;13.63;;;3.77;;
22378;SDS011;11357;49.990;7.370;2024-02-15T00:46:33;12.73;;;4.63;;
22378;SDS011;11357;49.990;7.370;2024-02-15T00:48:59;9.93;;;4.20;;
22378;SDS011;11357;49.990;7.370;2024-02-15T00:51:25;11.53;;;4.17;;
22378;SDS011;11357;49.990;7.370;2024-02-15T00:53:51;16.27;;;4.20;;
22378;SDS011;11357;49.990;7.370;2024-02-15T00:56:16;13.27;;;4.13;;
22378;SDS011;11357;49.990;7.370;2024-02-15T00:58:42;15.63;;;4.57;;
22378;SDS011;11357;49.990;7.370;2024-02-15T01:01:08;13.03;;;3.90;;
22378;SDS011;11357;49.990;7.370;2024-02-15T01:03:35;15.67;;;4.13;;
22378;SDS011;11357;49.990;7.370;2024-02-15T01:06:01;7.27;;;4.10;;
22378;SDS011;11357;49.990;7.370;2024-02-15T01:08:27;10.33;;;3.80;;
22378;SDS011;11357;49.990;7.370;2024-02-15T01:10:53;13.40;;;3.97;;
22378;SDS011;11357;49.990;7.370;2024-02-15T01:13:19;12.43;;;4.17;;
22378;SDS011;11357;49.990;7.370;2024-02-15T01:15:45;12.90;;;4.20;;
22378;SDS011;11357;49.990;7.370;2024-02-15T01:18:11;12.43;;;3.90;;
22378;SDS011;11357;49.990;7.370;2024-02-15T01:20:36;19.50;;;4.93;;
22378;SDS011;11357;49.990;7.370;2024-02-15T01:23:02;15.90;;;4.40;;
22378;SDS011;11357;49.990;7.370;2024-02-15T01:25:30;23.10;;;3.93;;
22378;SDS011;11357;49.990;7.370;2024-02-15T01:27:55;11.63;;;5.00;;
22378;SDS011;11357;49.990;7.370;2024-02-15T01:30:21;12.77;;;3.83;;
22378;SDS011;11357;49.990;7.370;2024-02-15T01:32:47;14.40;;;3.57;;
22378;SDS011;11357;49.990;7.370;2024-02-15T01:35:13;17.50;;;4.77;;
22378;SDS011;11357;49.990;7.370;2024-02-15T01:37:39;15.47;;;4.07;;
22378;SDS011;11357;49.990;7.370;2024-02-15T01:40:04;17.70;;;4.47;;
22378;SDS011;11357;49.990;7.370;2024-02-15T01:42:31;26.57;;;6.23;;
22378;SDS011;11357;49.990;7.370;2024-02-15T01:44:57;12.63;;;3.53;;
22378;SDS011;11357;49.990;7.370;2024-02-15T01:47:23;10.13;;;4.30;;
22378;SDS011;11357;49.990;7.370;2024-02-15T01:49:49;16.93;;;3.83;;
22378;SDS011;11357;49.990;7.370;2024-02-15T01:52:17;8.67;;;4.20;;
22378;SDS011;11357;49.990;7.370;2024-02-15T01:54:43;11.57;;;3.77;;
22378;SDS011;11357;49.990;7.370;2024-02-15T01:57:10;17.83;;;3.60;;
22378;SDS011;11357;49.990;7.370;2024-02-15T01:59:35;9.23;;;3.10;;
22378;SDS011;11357;49.990;7.370;2024-02-15T02:02:02;11.00;;;3.20;;
22378;SDS011;11357;49.990;7.370;2024-02-15T02:04:29;12.60;;;3.63;;
22378;SDS011;11357;49.990;7.370;2024-02-15T02:06:57;15.73;;;3.10;;
22378;SDS011;11357;49.990;7.370;2024-02-15T02:09:24;14.67;;;3.67;;
22378;SDS011;11357;49.990;7.370;2024-02-15T02:11:49;9.37;;;2.93;;
22378;SDS011;11357;49.990;7.370;2024-02-15T02:14:16;13.80;;;4.67;;
22378;SDS011;11357;49.990;7.370;2024-02-15T02:16:42;11.23;;;3.37;;
22378;SDS011;11357;49.990;7.370;2024-02-15T02:19:07;15.90;;;3.20;;
22378;SDS011;11357;49.990;7.370;2024-02-15T02:21:34;7.27;;;2.60;;
22378;SDS011;11357;49.990;7.370;2024-02-15T02:24:02;15.60;;;3.20;;
22378;SDS011;11357;49.990;7.370;2024-02-15T02:26:33;13.70;;;3.23;;
22378;SDS011;11357;49.990;7.370;2024-02-15T02:29:02;9.87;;;2.80;;
22378;SDS011;11357;49.990;7.370;2024-02-15T02:31:33;11.17;;;3.03;;
22378;SDS011;11357;49.990;7.370;2024-02-15T02:34:00;22.47;;;5.80;;
22378;SDS011;11357;49.990;7.370;2024-02-15T02:36:26;15.33;;;3.57;;
22378;SDS011;11357;49.990;7.370;2024-02-15T02:38:52;18.17;;;4.37;;
22378;SDS011;11357;49.990;7.370;2024-02-15T02:41:18;11.23;;;2.83;;
22378;SDS011;11357;49.990;7.370;2024-02-15T02:43:46;11.67;;;3.33;;
22378;SDS011;11357;49.990;7.370;2024-02-15T02:46:14;13.47;;;3.40;;
22378;SDS011;11357;49.990;7.370;2024-02-15T02:48:40;9.47;;;3.03;;
22378;SDS011;11357;49.990;7.370;2024-02-15T02:51:08;9.70;;;3.27;;
22378;SDS011;11357;49.990;7.370;2024-02-15T02:53:34;10.40;;;3.80;;
22378;SDS011;11357;49.990;7.370;2024-02-15T02:56:01;19.50;;;5.00;;
22378;SDS011;11357;49.990;7.370;2024-02-15T02:58:28;18.03;;;4.50;;
22378;SDS011;11357;49.990;7.370;2024-02-15T03:00:54;9.17;;;3.90;;
22378;SDS011;11357;49.990;7.370;2024-02-15T03:03:20;21.80;;;4.20;;
22378;SDS011;11357;49.990;7.370;2024-02-15T03:05:48;15.17;;;4.30;;
22378;SDS011;11357;49.990;7.370;2024-02-15T03:08:13;14.33;;;3.20;;
22378;SDS011;11357;49.990;7.370;2024-02-15T03:10:40;11.43;;;2.80;;
22378;SDS011;11357;49.990;7.370;2024-02-15T03:13:06;8.07;;;3.57;;
22378;SDS011;11357;49.990;7.370;2024-02-15T03:15:34;10.57;;;4.80;;
22378;SDS011;11357;49.990;7.370;2024-02-15T03:18:00;9.53;;;3.70;;
22378;SDS011;11357;49.990;7.370;2024-02-15T03:20:32;14.20;;;4.60;;
22378;SDS011;11357;49.990;7.370;2024-02-15T03:22:59;12.83;;;4.60;;
22378;SDS011;11357;49.990;7.370;2024-02-15T03:25:26;10.87;;;3.83;;
22378;SDS011;11357;49.990;7.370;2024-02-15T03:28:00;8.97;;;4.47;;
22378;SDS011;11357;49.990;7.370;2024-02-15T03:30:30;7.73;;;3.33;;
22378;SDS011;11357;49.990;7.370;2024-02-15T03:32:56;9.83;;;3.60;;
22378;SDS011;11357;49.990;7.370;2024-02-15T03:35:26;12.93;;;4.83;;
22378;SDS011;11357;49.990;7.370;2024-02-15T03:37:53;23.77;;;6.53;;
22378;SDS011;11357;49.990;7.370;2024-02-15T03:40:20;9.63;;;3.80;;
22378;SDS011;11357;49.990;7.370;2024-02-15T03:42:46;9.63;;;4.23;;
22378;SDS011;11357;49.990;7.370;2024-02-15T03:45:13;14.20;;;4.33;;
22378;SDS011;11357;49.990;7.370;2024-02-15T03:47:38;23.10;;;5.50;;
22378;SDS011;11357;49.990;7.370;2024-02-15T03:50:05;10.97;;;3.10;;
22378;SDS011;11357;49.990;7.370;2024-02-15T03:52:33;13.90;;;4.03;;
22378;SDS011;11357;49.990;7.370;2024-02-15T03:54:59;11.97;;;3.97;;
22378;SDS011;11357;49.990;7.370;2024-02-15T03:57:25;7.70;;;4.20;;
22378;SDS011;11357;49.990;7.370;2024-02-15T03:59:51;15.50;;;4.37;;
22378;SDS011;11357;49.990;7.370;2024-02-15T04:02:19;10.57;;;2.87;;
22378;SDS011;11357;49.990;7.370;2024-02-15T04:04:51;10.50;;;3.60;;
22378;SDS011;11357;49.990;7.370;2024-02-15T04:07:19;13.80;;;4.60;;
22378;SDS011;11357;49.990;7.370;2024-02-15T04:09:45;15.67;;;4.43;;
22378;SDS011;11357;49.990;7.370;2024-02-15T04:12:11;19.70;;;4.07;;
22378;SDS011;11357;49.990;7.370;2024-02-15T04:14:37;9.03;;;4.83;;
22378;SDS011;11357;49.990;7.370;2024-02-15T04:17:06;21.83;;;5.63;;
22378;SDS011;11357;49.990;7.370;2024-02-15T04:19:32;20.53;;;6.23;;
22378;SDS011;11357;49.990;7.370;2024-02-15T04:21:58;14.63;;;6.57;;
22378;SDS011;11357;49.990;7.370;2024-02-15T04:24:26;17.93;;;5.33;;
22378;SDS011;11357;49.990;7.370;2024-02-15T04:26:51;25.87;;;6.00;;
22378;SDS011;11357;49.990;7.370;2024-02-15T04:29:18;13.20;;;5.03;;
22378;SDS011;11357;49.990;7.370;2024-02-15T04:31:45;6.73;;;3.10;;
22378;SDS011;11357;49.990;7.370;2024-02-15T04:34:14;17.20;;;5.23;;
22378;SDS011;11357;49.990;7.370;2024-02-15T04:36:40;16.60;;;6.30;;
22378;SDS011;11357;49.990;7.370;2024-02-15T04:39:07;14.40;;;5.27;;
22378;SDS011;11357;49.990;7.370;2024-02-15T04:41:35;17.40;;;6.70;;
22378;SDS011;11357;49.990;7.370;2024-02-15T04:44:04;26.77;;;6.97;;
22378;SDS011;11357;49.990;7.370;2024-02-15T04:46:33;12.40;;;6.57;;
22378;SDS011;11357;49.990;7.370;2024-02-15T04:48:59;12.57;;;6.60;;
22378;SDS011;11357;49.990;7.370;2024-02-15T04:51:27;13.57;;;5.37;;
22378;SDS011;11357;49.990;7.370;2024-02-15T04:53:52;21.33;;;8.03;;
22378;SDS011;11357;49.990;7.370;2024-02-15T04:56:18;13.83;;;5.93;;
22378;SDS011;11357;49.990;7.370;2024-02-15T04:58:46;18.40;;;7.17;;
22378;SDS011;11357;49.990;7.370;2024-02-15T05:01:15;17.80;;;6.23;;
22378;SDS011;11357;49.990;7.370;2024-02-15T05:03:44;16.83;;;6.10;;
22378;SDS011;11357;49.990;7.370;2024-02-15T05:06:10;16.17;;;6.40;;
22378;SDS011;11357;49.990;7.370;2024-02-15T05:08:40;22.77;;;7.23;;
22378;SDS011;11357;49.990;7.370;2024-02-15T05:11:09;13.40;;;6.00;;
22378;SDS011;11357;49.990;7.370;2024-02-15T05:13:40;15.57;;;6.87;;
22378;SDS011;11357;49.990;7.370;2024-02-15T05:16:06;14.20;;;5.50;;
22378;SDS011;11357;49.990;7.370;2024-02-15T05:18:32;20.40;;;7.00;;
22378;SDS011;11357;49.990;7.370;2024-02-15T05:20:59;12.93;;;5.60;;
22378;SDS011;11357;49.990;7.370;2024-02-15T05:23:27;19.70;;;8.13;;
22378;SDS011;11357;49.990;7.370;2024-02-15T05:25:52;10.67;;;5.10;;
22378;SDS011;11357;49.990;7.370;2024-02-15T05:28:19;12.80;;;6.47;;
22378;SDS011;11357;49.990;7.370;2024-02-15T05:31:08;15.03;;;6.70;;
22378;SDS011;11357;49.990;7.370;2024-02-15T05:33:37;25.73;;;7.90;;
22378;SDS011;11357;49.990;7.370;2024-02-15T05:36:12;19.77;;;7.00;;
22378;SDS011;11357;49.990;7.370;2024-02-15T05:38:45;10.97;;;6.40;;
22378;SDS011;11357;49.990;7.370;2024-02-15T05:41:17;11.80;;;7.60;;
22378;SDS011;11357;49.990;7.370;2024-02-15T05:43:45;30.90;;;10.50;;
22378;SDS011;11357;49.990;7.370;2024-02-15T05:46:13;18.87;;;7.57;;
22378;SDS011;11357;49.990;7.370;2024-02-15T05:48:39;28.13;;;8.40;;
22378;SDS011;11357;49.990;7.370;2024-02-15T05:51:05;14.77;;;7.50;;
22378;SDS011;11357;49.990;7.370;2024-02-15T05:53:32;21.77;;;8.37;;
22378;SDS011;11357;49.990;7.370;2024-02-15T05:56:01;14.30;;;7.43;;
22378;SDS011;11357;49.990;7.370;2024-02-15T05:58:29;27.17;;;8.63;;
22378;SDS011;11357;49.990;7.370;2024-02-15T06:00:56;29.97;;;8.80;;
22378;SDS011;11357;49.990;7.370;2024-02-15T06:03:26;20.40;;;8.27;;
22378;SDS011;11357;49.990;7.370;2024-02-15T06:05:57;14.03;;;7.43;;
22378;SDS011;11357;49.990;7.370;2024-02-15T06:08:24;19.53;;;9.73;;
22378;SDS011;11357;49.990;7.370;2024-02-15T06:10:51;28.27;;;10.57;;
22378;SDS011;11357;49.990;7.370;2024-02-15T06:13:17;22.63;;;10.27;;
22378;SDS011;11357;49.990;7.370;2024-02-15T06:15:44;31.60;;;13.37;;
22378;SDS011;11357;49.990;7.370;2024-02-15T06:18:12;20.43;;;12.53;;
22378;SDS011;11357;49.990;7.370;2024-02-15T06:20:39;27.50;;;14.33;;
22378;SDS011;11357;49.990;7.370;2024-02-15T06:23:06;30.57;;;14.67;;
22378;SDS011;11357;49.990;7.370;2024-02-15T06:25:32;34.07;;;15.47;;
22378;SDS011;11357;49.990;7.370;2024-02-15T06:27:59;34.40;;;15.53;;
22378;SDS011;11357;49.990;7.370;2024-02-15T06:30:31;29.73;;;15.20;;
22378;SDS011;11357;49.990;7.370;2024-02-15T06:33:16;25.53;;;14.97;;
22378;SDS011;11357;49.990;7.370;2024-02-15T06:36:03;30.43;;;14.43;;
22378;SDS011;11357;49.990;7.370;2024-02-15T06:38:48;28.07;;;15.80;;
22378;SDS011;11357;49.990;7.370;2024-02-15T06:41:33;22.57;;;14.33;;
22378;SDS011;11357;49.990;7.370;2024-02-15T06:43:58;35.57;;;15.43;;
22378;SDS011;11357;49.990;7.370;2024-02-15T06:46:24;36.40;;;14.93;;
22378;SDS011;11357;49.990;7.370;2024-02-15T06:48:50;27.30;;;15.13;;
22378;SDS011;11357;49.990;7.370;2024-02-15T06:51:15;32.47;;;15.73;;
22378;SDS011;11357;49.990;7.370;2024-02-15T06:53:41;23.97;;;14.20;;
22378;SDS011;11357;49.990;7.370;2024-02-15T06:56:09;24.87;;;13.90;;
22378;SDS011;11357;49.990;7.370;2024-02-15T06:58:36;26.60;;;14.10;;
22378;SDS011;11357;49.990;7.370;2024-02-15T07:01:02;26.87;;;15.27;;
22378;SDS011;11357;49.990;7.370;2024-02-15T07:03:31;28.10;;;14.57;;
22378;SDS011;11357;49.990;7.370;2024-02-15T07:05:59;25.00;;;14.67;;
22378;SDS011;11357;49.990;7.370;2024-02-15T07:08:25;34.60;;;16.70;;
22378;SDS011;11357;49.990;7.370;2024-02-15T07:10:50;25.37;;;14.37;;
22378;SDS011;11357;49.990;7.370;2024-02-15T07:13:19;31.17;;;14.90;;
22378;SDS011;11357;49.990;7.370;2024-02-15T07:15:45;24.60;;;13.67;;
22378;SDS011;11357;49.990;7.370;2024-02-15T07:18:12;27.87;;;16.47;;
22378;SDS011;11357;49.990;7.370;2024-02-15T07:20:41;33.97;;;15.20;;
22378;SDS011;11357;49.990;7.370;2024-02-15T07:23:07;27.23;;;14.90;;
22378;SDS011;11357;49.990;7.370;2024-02-15T07:25:32;30.33;;;15.83;;
22378;SDS011;11357;49.990;7.370;2024-02-15T07:27:58;35.83;;;15.40;;
22378;SDS011;11357;49.990;7.370;2024-02-15T07:30:24;19.70;;;14.00;;
22378;SDS011;11357;49.990;7.370;2024-02-15T07:32:49;29.27;;;14.17;;
22378;SDS011;11357;49.990;7.370;2024-02-15T07:35:15;31.03;;;15.73;;
22378;SDS011;11357;49.990;7.370;2024-02-15T07:37:52;23.73;;;14.70;;
22378;SDS011;11357;49.990;7.370;2024-02-15T07:40:23;23.10;;;14.93;;
22378;SDS011;11357;49.990;7.370;2024-02-15T07:42:54;30.40;;;14.53;;
22378;SDS011;11357;49.990;7.370;2024-02-15T07:45:21;23.87;;;13.33;;
22378;SDS011;11357;49.990;7.370;2024-02-15T07:47:47;28.10;;;14.47;;
22378;SDS011;11357;49.990;7.370;2024-02-15T07:50:17;26.73;;;14.67;;
22378;SDS011;11357;49.990;7.370;2024-02-15T07:52:48;22.67;;;15.57;;
22378;SDS011;11357;49.990;7.370;2024-02-15T07:55:14;24.07;;;13.77;;
22378;SDS011;11357;49.990;7.370;2024-02-15T07:57:40;23.53;;;14.60;;
22378;SDS011;11357;49.990;7.370;2024-02-15T08:00:06;39.17;;;14.30;;
22378;SDS011;11357;49.990;7.370;2024-02-15T08:02:39;23.43;;;13.03;;
22378;SDS011;11357;49.990;7.370;2024-02-15T08:05:08;24.10;;;13.63;;
22378;SDS011;11357;49.990;7.370;2024-02-15T08:07:43;22.03;;;12.53;;
22378;SDS011;11357;49.990;7.370;2024-02-15T08:10:10;18.47;;;12.07;;
22378;SDS011;11357;49.990;7.370;2024-02-15T08:12:42;25.93;;;14.47;;
22378;SDS011;11357;49.990;7.370;2024-02-15T08:15:09;26.67;;;12.93;;
22378;SDS011;11357;49.990;7.370;2024-02-15T08:17:39;26.93;;;13.67;;
22378;SDS011;11357;49.990;7.370;2024-02-15T08:20:15;21.47;;;12.90;;
22378;SDS011;11357;49.990;7.370;2024-02-15T08:22:46;21.87;;;12.93;;
22378;SDS011;11357;49.990;7.370;2024-02-15T08:25:12;20.27;;;12.73;;
22378;SDS011;11357;49.990;7.370;2024-02-15T08:27:40;29.77;;;14.33;;
22378;SDS011;11357;49.990;7.370;2024-02-15T08:30:08;30.87;;;14.17;;
22378;SDS011;11357;49.990;7.370;2024-02-15T08:32:35;32.83;;;14.57;;
22378;SDS011;11357;49.990;7.370;2024-02-15T08:35:06;26.00;;;12.90;;
22378;SDS011;11357;49.990;7.370;2024-02-15T08:37:33;25.27;;;12.00;;
22378;SDS011;11357;49.990;7.370;2024-02-15T08:40:00;31.03;;;12.93;;
22378;SDS011;11357;49.990;7.370;2024-02-15T08:42:27;45.23;;;12.60;;
22378;SDS011;11357;49.990;7.370;2024-02-15T08:44:53;31.33;;;10.93;;
22378;SDS011;11357;49.990;7.370;2024-02-15T08:47:19;16.83;;;9.27;;
22378;SDS011;11357;49.990;7.370;2024-02-15T08:49:46;27.57;;;11.17;;
22378;SDS011;11357;49.990;7.370;2024-02-15T08:52:11;33.47;;;10.63;;
22378;SDS011;11357;49.990;7.370;2024-02-15T08:54:37;31.17;;;11.00;;
22378;SDS011;11357;49.990;7.370;2024-02-15T08:57:06;44.67;;;11.63;;
22378;SDS011;11357;49.990;7.370;2024-02-15T08:59:32;47.33;;;9.77;;
22378;SDS011;11357;49.990;7.370;2024-02-15T09:01:58;21.60;;;9.53;;
22378;SDS011;11357;49.990;7.370;2024-02-15T09:04:25;27.07;;;8.70;;
22378;SDS011;11357;49.990;7.370;2024-02-15T09:06:51;35.40;;;7.93;;
22378;SDS011;11357;49.990;7.370;2024-02-15T09:09:17;27.70;;;8.00;;
22378;SDS011;11357;49.990;7.370;2024-02-15T09:11:43;24.03;;;9.33;;
22378;SDS011;11357;49.990;7.370;2024-02-15T09:14:08;27.87;;;7.30;;
22378;SDS011;11357;49.990;7.370;2024-02-15T09:16:37;32.00;;;8.63;;
22378;SDS011;11357;49.990;7.370;2024-02-15T09:19:02;43.93;;;10.03;;
22378;SDS011;11357;49.990;7.370;2024-02-15T09:21:28;50.23;;;9.07;;
22378;SDS011;11357;49.990;7.370;2024-02-15T09:23:54;29.80;;;8.50;;
22378;SDS011;11357;49.990;7.370;2024-02-15T09:26:21;39.43;;;8.80;;
22378;SDS011;11357;49.990;7.370;2024-02-15T09:28:47;36.63;;;8.07;;
22378;SDS011;11357;49.990;7.370;2024-02-15T09:31:13;31.73;;;7.07;;
22378;SDS011;11357;49.990;7.370;2024-02-15T09:33:41;35.40;;;8.43;;
22378;SDS011;11357;49.990;7.370;2024-02-15T09:36:07;20.20;;;7.40;;
22378;SDS011;11357;49.990;7.370;2024-02-15T09:38:33;82.27;;;12.43;;
22378;SDS011;11357;49.990;7.370;2024-02-15T09:40:58;50.47;;;10.53;;
22378;SDS011;11357;49.990;7.370;2024-02-15T09:43:24;48.73;;;9.77;;
22378;SDS011;11357;49.990;7.370;2024-02-15T09:45:54;23.10;;;7.97;;
22378;SDS011;11357;49.990;7.370;2024-02-15T09:48:19;32.27;;;9.23;;
22378;SDS011;11357;49.990;7.370;2024-02-15T09:50:50;74.47;;;12.87;;
22378;SDS011;11357;49.990;7.370;2024-02-15T09:53:20;57.97;;;11.23;;
22378;SDS011;11357;49.990;7.370;2024-02-15T09:55:47;72.17;;;14.13;;
22378;SDS011;11357;49.990;7.370;2024-02-15T09:58:13;39.30;;;10.83;;
22378;SDS011;11357;49.990;7.370;2024-02-15T10:00:40;54.43;;;14.03;;
22378;SDS011;11357;49.990;7.370;2024-02-15T10:03:06;100.23;;;20.20;;
22378;SDS011;11357;49.990;7.370;2024-02-15T10:05:32;75.33;;;16.20;;
22378;SDS011;11357;49.990;7.370;2024-02-15T10:07:58;92.50;;;15.23;;
22378;SDS011;11357;49.990;7.370;2024-02-15T10:10:26;62.37;;;12.87;;
22378;SDS011;11357;49.990;7.370;2024-02-15T10:12:53;50.77;;;13.10;;
22378;SDS011;11357;49.990;7.370;2024-02-15T10:15:36;54.60;;;10.97;;
22378;SDS011;11357;49.990;7.370;2024-02-15T10:20:30;103.00;;;20.40;;
22378;SDS011;11357;49.990;7.370;2024-02-15T10:25:28;61.67;;;12.80;;
22378;SDS011;11357;49.990;7.370;2024-02-15T10:28:27;94.03;;;16.23;;
22378;SDS011;11357;49.990;7.370;2024-02-15T10:30:48;96.70;;;19.90;;
22378;SDS011;11357;49.990;7.370;2024-02-15T10:33:18;88.83;;;16.93;;
22378;SDS011;11357;49.990;7.370;2024-02-15T10:35:48;83.27;;;17.33;;
22378;SDS011;11357;49.990;7.370;2024-02-15T10:38:14;80.90;;;17.43;;
22378;SDS011;11357;49.990;7.370;2024-02-15T10:40:40;83.57;;;15.83;;
22378;SDS011;11357;49.990;7.370;2024-02-15T10:43:08;109.47;;;20.87;;
22378;SDS011;11357;49.990;7.370;2024-02-15T10:45:38;90.60;;;16.03;;
22378;SDS011;11357;49.990;7.370;2024-02-15T10:48:08;76.27;;;21.10;;
22378;SDS011;11357;49.990;7.370;2024-02-15T10:50:35;113.57;;;19.07;;
22378;SDS011;11357;49.990;7.370;2024-02-15T10:53:03;121.07;;;26.00;;
22378;SDS011;11357;49.990;7.370;2024-02-15T10:55:59;105.93;;;29.53;;
22378;SDS011;11357;49.990;7.370;2024-02-15T10:58:37;121.57;;;26.10;;
22378;SDS011;11357;49.990;7.370;2024-02-15T11:01:11;153.00;;;30.27;;
22378;SDS011;11357;49.990;7.370;2024-02-15T11:03:44;161.13;;;41.20;;
22378;SDS011;11357;49.990;7.370;2024-02-15T11:06:21;213.33;;;55.33;;
22378;SDS011;11357;49.990;7.370;2024-02-15T11:08:50;170.27;;;35.73;;
22378;SDS011;11357;49.990;7.370;2024-02-15T11:11:16;311.97;;;64.37;;
22378;SDS011;11357;49.990;7.370;2024-02-15T11:13:43;399.17;;;101.70;;
22378;SDS011;11357;49.990;7.370;2024-02-15T11:16:08;373.50;;;102.10;;
22378;SDS011;11357;49.990;7.370;2024-02-15T11:18:49;352.17;;;72.80;;
22378;SDS011;11357;49.990;7.370;2024-02-15T11:21:17;265.87;;;49.80;;
22378;SDS011;11357;49.990;7.370;2024-02-15T11:23:43;344.93;;;53.83;;
22378;SDS011;11357;49.990;7.370;2024-02-15T11:32:35;713.33;;;217.80;;
22378;SDS011;11357;49.990;7.370;2024-02-15T11:40:28;697.53;;;156.23;;
22378;SDS011;11357;49.990;7.370;2024-02-15T11:43:07;375.73;;;64.47;;
22378;SDS011;11357;49.990;7.370;2024-02-15T11:45:34;409.40;;;103.23;;
22378;SDS011;11357;49.990;7.370;2024-02-15T11:48:09;273.97;;;68.93;;
22378;SDS011;11357;49.990;7.370;2024-02-15T11:50:36;433.63;;;130.03;;
22378;SDS011;11357;49.990;7.370;2024-02-15T11:53:04;794.80;;;153.07;;
22378;SDS011;11357;49.990;7.370;2024-02-15T11:55:34;350.97;;;79.27;;
22378;SDS011;11357;49.990;7.370;2024-02-15T11:58:04;527.40;;;108.27;;
22378;SDS011;11357;49.990;7.370;2024-02-15T12:00:42;635.17;;;141.70;;
22378;SDS011;11357;49.990;7.370;2024-02-15T12:03:26;432.27;;;113.17;;
22378;SDS011;11357;49.990;7.370;2024-02-15T12:06:11;371.33;;;84.23;;
22378;SDS011;11357;49.990;7.370;2024-02-15T12:08:55;334.93;;;65.50;;
22378;SDS011;11357;49.990;7.370;2024-02-15T12:11:39;617.77;;;128.53;;
22378;SDS011;11357;49.990;7.370;2024-02-15T12:14:24;636.00;;;180.43;;
22378;SDS011;11357;49.990;7.370;2024-02-15T12:17:09;487.03;;;159.77;;
22378;SDS011;11357;49.990;7.370;2024-02-15T12:19:57;550.90;;;149.13;;
22378;SDS011;11357;49.990;7.370;2024-02-15T12:22:32;452.17;;;147.43;;
22378;SDS011;11357;49.990;7.370;2024-02-15T12:25:06;433.63;;;106.33;;
22378;SDS011;11357;49.990;7.370;2024-02-15T12:27:38;699.97;;;211.17;;
22378;SDS011;11357;49.990;7.370;2024-02-15T12:30:05;463.03;;;145.93;;
22378;SDS011;11357;49.990;7.370;2024-02-15T12:32:32;571.30;;;159.03;;
22378;SDS011;11357;49.990;7.370;2024-02-15T12:35:11;688.67;;;137.57;;
22378;SDS011;11357;49.990;7.370;2024-02-15T12:37:41;348.47;;;90.73;;
22378;SDS011;11357;49.990;7.370;2024-02-15T12:40:15;741.87;;;189.60;;
22378;SDS011;11357;49.990;7.370;2024-02-15T12:42:43;493.13;;;107.37;;
22378;SDS011;11357;49.990;7.370;2024-02-15T12:45:19;501.57;;;100.73;;
22378;SDS011;11357;49.990;7.370;2024-02-15T12:47:52;527.57;;;113.43;;
22378;SDS011;11357;49.990;7.370;2024-02-15T12:50:19;402.43;;;91.50;;
22378;SDS011;11357;49.990;7.370;2024-02-15T12:52:47;584.77;;;113.20;;
22378;SDS011;11357;49.990;7.370;2024-02-15T12:55:19;427.70;;;92.00;;
22378;SDS011;11357;49.990;7.370;2024-02-15T12:57:50;727.80;;;182.70;;
22378;SDS011;11357;49.990;7.370;2024-02-15T13:00:23;629.47;;;130.40;;
22378;SDS011;11357;49.990;7.370;2024-02-15T13:02:57;1690.17;;;502.70;;
22378;SDS011;11357;49.990;7.370;2024-02-15T13:05:24;503.00;;;205.53;;
22378;SDS011;11357;49.990;7.370;2024-02-15T13:07:52;809.67;;;204.80;;
22378;SDS011;11357;49.990;7.370;2024-02-15T13:10:23;714.43;;;158.73;;
22378;SDS011;11357;49.990;7.370;2024-02-15T13:12:51;486.07;;;156.50;;
22378;SDS011;11357;49.990;7.370;2024-02-15T13:15:18;1283.00;;;389.33;;
22378;SDS011;11357;49.990;7.370;2024-02-15T13:17:49;890.83;;;263.33;;
22378;SDS011;11357;49.990;7.370;2024-02-15T13:20:18;760.83;;;211.60;;
22378;SDS011;11357;49.990;7.370;2024-02-15T13:22:57;833.33;;;289.67;;
22378;SDS011;11357;49.990;7.370;2024-02-15T13:25:30;1101.37;;;362.10;;
22378;SDS011;11357;49.990;7.370;2024-02-15T13:27:57;1256.47;;;305.33;;
22378;SDS011;11357;49.990;7.370;2024-02-15T13:30:22;755.17;;;219.60;;
22378;SDS011;11357;49.990;7.370;2024-02-15T13:32:52;923.67;;;260.60;;
22378;SDS011;11357;49.990;7.370;2024-02-15T13:35:19;658.20;;;188.50;;
22378;SDS011;11357;49.990;7.370;2024-02-15T13:37:49;526.27;;;137.57;;
22378;SDS011;11357;49.990;7.370;2024-02-15T13:40:25;625.13;;;159.10;;
22378;SDS011;11357;49.990;7.370;2024-02-15T18:44:22;232.23;;;52.67;;
22378;SDS011;11357;49.990;7.370;2024-02-15T18:46:50;205.67;;;47.27;;
22378;SDS011;11357;49.990;7.370;2024-02-15T18:49:16;95.27;;;32.73;;
22378;SDS011;11357;49.990;7.370;2024-02-15T18:51:42;131.77;;;34.47;;
22378;SDS011;11357;49.990;7.370;2024-02-15T18:54:08;144.33;;;34.87;;
22378;SDS011;11357;49.990;7.370;2024-02-15T18:56:34;126.07;;;40.70;;
22378;SDS011;11357;49.990;7.370;2024-02-15T18:59:00;113.90;;;28.87;;
22378;SDS011;11357;49.990;7.370;2024-02-15T19:01:31;136.57;;;30.50;;
22378;SDS011;11357;49.990;7.370;2024-02-15T19:04:00;137.77;;;34.90;;
22378;SDS011;11357;49.990;7.370;2024-02-15T19:06:26;134.33;;;34.60;;
22378;SDS011;11357;49.990;7.370;2024-02-15T19:08:52;140.03;;;39.77;;
22378;SDS011;11357;49.990;7.370;2024-02-15T19:11:18;138.83;;;33.37;;
22378;SDS011;11357;49.990;7.370;2024-02-15T19:13:43;136.07;;;34.13;;
22378;SDS011;11357;49.990;7.370;2024-02-15T19:16:10;211.60;;;42.37;;
22378;SDS011;11357;49.990;7.370;2024-02-15T19:18:37;181.90;;;42.20;;
22378;SDS011;11357;49.990;7.370;2024-02-15T19:21:03;142.27;;;30.63;;
22378;SDS011;11357;49.990;7.370;2024-02-15T19:23:29;161.87;;;38.00;;
22378;SDS011;11357;49.990;7.370;2024-02-15T19:25:56;210.83;;;50.73;;
22378;SDS011;11357;49.990;7.370;2024-02-15T19:28:22;165.50;;;35.90;;
22378;SDS011;11357;49.990;7.370;2024-02-15T19:30:51;85.10;;;29.57;;
22378;SDS011;11357;49.990;7.370;2024-02-15T19:33:17;156.57;;;39.27;;
22378;SDS011;11357;49.990;7.370;2024-02-15T19:35:44;167.13;;;40.70;;
22378;SDS011;11357;49.990;7.370;2024-02-15T19:38:10;145.43;;;33.80;;
22378;SDS011;11357;49.990;7.370;2024-02-15T19:40:35;118.57;;;30.77;;
22378;SDS011;11357;49.990;7.370;2024-02-15T19:43:07;229.20;;;47.00;;
22378;SDS011;11357;49.990;7.370;2024-02-15T19:45:36;181.90;;;46.80;;
22378;SDS011;11357;49.990;7.370;2024-02-15T19:48:07;106.57;;;34.17;;